Time;durP1;ratioP1;P1;durP2;ratioP2;P2;SDS_P1;SDS_P2;PMS_P1;PMS_P2;Temp;Humidity;BMP_temperature;BMP_pressure;BME280_temperature;BME280_humidity;BME280_pressure;Samples;Min_cycle;Max_cycle;Signal;HPM_P1;HPM_P2
2022/11/06 00:02:42;;;;;;;24.73;12.85;;;;;;;;;;6154852;23;20226;-92
2022/11/06 00:09:12;;;;;;;26.52;13.32;;;;;;;;;;6153660;23;20202;-90
2022/11/06 00:12:17;;;;;;;25.45;13.23;;;;;;;;;;6154877;23;20495;-90
2022/11/06 00:15:24;;;;;;;24.30;13.73;;;;;;;;;;6156584;23;20196;-90
2022/11/06 00:18:30;;;;;;;25.52;13.07;;;;;;;;;;6155149;23;20220;-88
2022/11/06 00:21:37;;;;;;;28.98;13.57;;;;;;;;;;6154922;23;20631;-89
2022/11/06 00:24:42;;;;;;;25.70;13.38;;;;;;;;;;6153957;23;20216;-90
2022/11/06 00:27:47;;;;;;;36.17;15.32;;;;;;;;;;6154062;23;20176;-89
2022/11/06 00:31:01;;;;;;;30.67;14.27;;;;;;;;;;6155768;23;20265;-89
2022/11/06 00:34:07;;;;;;;32.47;14.60;;;;;;;;;;6153616;23;20600;-90
2022/11/06 00:37:14;;;;;;;33.63;14.02;;;;;;;;;;6152360;23;20175;-88
2022/11/06 00:40:19;;;;;;;30.42;14.15;;;;;;;;;;6153335;23;20176;-90
2022/11/06 00:43:24;;;;;;;26.52;13.40;;;;;;;;;;6153200;23;20224;-90
2022/11/06 00:46:38;;;;;;;26.45;13.57;;;;;;;;;;6152208;23;20168;-89
2022/11/06 00:49:44;;;;;;;26.23;13.43;;;;;;;;;;6155127;23;20197;-90
2022/11/06 00:52:52;;;;;;;25.35;13.40;;;;;;;;;;6172922;23;20193;-89
2022/11/06 00:56:04;;;;;;;30.17;14.63;;;;;;;;;;6155099;23;20200;-88
2022/11/06 00:59:12;;;;;;;24.25;12.70;;;;;;;;;;6153706;23;20177;-90
2022/11/06 01:02:19;;;;;;;26.67;13.60;;;;;;;;;;6156444;23;20639;-91
2022/11/06 01:05:25;;;;;;;25.25;13.15;;;;;;;;;;6151370;23;20172;-92
2022/11/06 01:08:32;;;;;;;30.40;12.73;;;;;;;;;;6151870;23;20176;-89
2022/11/06 01:11:37;;;;;;;26.13;13.95;;;;;;;;;;6152697;23;20233;-90
2022/11/06 01:14:44;;;;;;;25.85;12.93;;;;;;;;;;6152136;23;20171;-90
2022/11/06 01:17:49;;;;;;;27.13;13.23;;;;;;;;;;6151063;23;20244;-89
2022/11/06 01:20:54;;;;;;;33.55;13.88;;;;;;;;;;6152296;23;20193;-89
2022/11/06 01:24:02;;;;;;;35.45;14.55;;;;;;;;;;6152272;23;20176;-90
2022/11/06 01:27:07;;;;;;;31.15;15.02;;;;;;;;;;6153354;23;20213;-89
2022/11/06 01:30:13;;;;;;;29.65;15.15;;;;;;;;;;6152927;23;20243;-90
2022/11/06 01:33:19;;;;;;;31.40;14.60;;;;;;;;;;6151731;23;20187;-89
2022/11/06 01:36:28;;;;;;;36.17;15.20;;;;;;;;;;6153213;23;20268;-87
2022/11/06 01:39:37;;;;;;;34.00;15.85;;;;;;;;;;6151171;23;20223;-88
2022/11/06 01:42:42;;;;;;;35.63;16.20;;;;;;;;;;6150680;23;20331;-90
2022/11/06 01:45:51;;;;;;;34.53;15.52;;;;;;;;;;6151430;23;20173;-91
2022/11/06 01:48:58;;;;;;;35.78;16.23;;;;;;;;;;6152872;23;20224;-89
2022/11/06 01:52:06;;;;;;;34.50;15.83;;;;;;;;;;6150573;23;20171;-90
2022/11/06 01:55:15;;;;;;;37.72;16.95;;;;;;;;;;6149219;23;20192;-89
2022/11/06 01:58:22;;;;;;;36.97;16.88;;;;;;;;;;6152580;23;20176;-91
2022/11/06 02:01:27;;;;;;;34.00;15.68;;;;;;;;;;6151445;23;20192;-89
2022/11/06 02:04:34;;;;;;;35.60;16.05;;;;;;;;;;6118291;23;20216;-91
2022/11/06 02:07:40;;;;;;;31.65;15.57;;;;;;;;;;6069386;23;20189;-89
2022/11/06 02:10:47;;;;;;;34.65;16.92;;;;;;;;;;6019140;23;20194;-88
2022/11/06 02:13:59;;;;;;;36.65;15.65;;;;;;;;;;6025521;23;20248;-89
2022/11/06 02:17:09;;;;;;;35.42;15.55;;;;;;;;;;6022583;23;20195;-90
2022/11/06 02:20:18;;;;;;;34.17;15.52;;;;;;;;;;6022803;23;20252;-90
2022/11/06 02:23:34;;;;;;;34.17;15.35;;;;;;;;;;6022280;23;20172;-90
2022/11/06 02:26:50;;;;;;;33.22;15.75;;;;;;;;;;6022706;23;20184;-89
2022/11/06 02:29:57;;;;;;;30.70;15.40;;;;;;;;;;6023602;23;20249;-92
2022/11/06 02:33:05;;;;;;;32.80;15.07;;;;;;;;;;6024203;23;20176;-90
2022/11/06 02:36:15;;;;;;;35.78;16.20;;;;;;;;;;6023177;23;20651;-91
2022/11/06 02:39:23;;;;;;;32.33;15.65;;;;;;;;;;6022967;23;20179;-88
2022/11/06 02:42:31;;;;;;;36.83;15.25;;;;;;;;;;6023671;23;20192;-88
2022/11/06 02:45:51;;;;;;;37.25;16.60;;;;;;;;;;6024790;23;20550;-91
2022/11/06 02:48:58;;;;;;;33.88;16.00;;;;;;;;;;6023491;23;20171;-90
2022/11/06 02:52:05;;;;;;;41.83;15.93;;;;;;;;;;6023654;23;20179;-91
2022/11/06 02:55:13;;;;;;;34.53;15.73;;;;;;;;;;6024040;23;20176;-88
2022/11/06 02:58:22;;;;;;;37.83;16.67;;;;;;;;;;6025169;23;20151;-91
2022/11/06 03:25:00;;;;;;;38.50;16.40;;;;;;;;;;6095450;23;20218;-90
2022/11/06 03:28:08;;;;;;;33.75;15.52;;;;;;;;;;6093068;23;20187;-91
2022/11/06 03:31:15;;;;;;;30.17;14.85;;;;;;;;;;6094751;23;20178;-90
2022/11/06 03:34:26;;;;;;;31.33;15.00;;;;;;;;;;6091682;23;20190;-89
2022/11/06 03:37:34;;;;;;;32.70;15.38;;;;;;;;;;6094474;23;20209;-90
2022/11/06 03:40:42;;;;;;;31.73;15.48;;;;;;;;;;6094876;23;20174;-91
2022/11/06 03:43:50;;;;;;;33.30;15.65;;;;;;;;;;6095179;23;20186;-90
2022/11/06 03:46:58;;;;;;;26.88;14.27;;;;;;;;;;6093694;23;20236;-87
2022/11/06 03:50:07;;;;;;;29.35;14.60;;;;;;;;;;6093149;23;20302;-89
2022/11/06 03:53:16;;;;;;;26.20;12.75;;;;;;;;;;6091664;23;20187;-87
2022/11/06 03:56:25;;;;;;;27.15;13.52;;;;;;;;;;6093826;23;20348;-90
2022/11/06 03:59:32;;;;;;;25.33;13.68;;;;;;;;;;6094709;23;20223;-90
2022/11/06 04:02:39;;;;;;;25.20;12.68;;;;;;;;;;6094556;23;20178;-89
2022/11/06 04:05:46;;;;;;;28.98;13.68;;;;;;;;;;6092785;23;20195;-92
2022/11/06 04:15:44;;;;;;;30.30;14.07;;;;;;;;;;6100979;23;20190;-90
2022/11/06 04:18:50;;;;;;;24.77;13.02;;;;;;;;;;6091894;23;20253;-92
2022/11/06 04:22:01;;;;;;;27.35;13.57;;;;;;;;;;6090938;23;20222;-90
2022/11/06 04:28:44;;;;;;;28.67;13.38;;;;;;;;;;6043256;23;20180;-91
2022/11/06 04:31:51;;;;;;;29.17;13.18;;;;;;;;;;5853204;24;20249;-91
2022/11/06 04:56:24;;;;;;;24.50;12.77;;;;;;;;;;6140620;22;1349752;-92
2022/11/06 04:59:31;;;;;;;24.73;12.18;;;;;;;;;;6204766;23;20211;-87
2022/11/06 05:02:57;;;;;;;34.88;12.52;;;;;;;;;;6205177;23;20167;-90
2022/11/06 05:06:02;;;;;;;27.42;13.65;;;;;;;;;;6204253;23;20657;-91
2022/11/06 05:09:08;;;;;;;25.77;12.57;;;;;;;;;;6206019;23;20236;-90
2022/11/06 05:12:14;;;;;;;25.27;12.55;;;;;;;;;;6204183;23;20279;-89
2022/11/06 05:15:19;;;;;;;31.25;14.38;;;;;;;;;;6202902;23;20175;-88
2022/11/06 05:18:25;;;;;;;28.67;13.50;;;;;;;;;;6205861;23;20171;-91
2022/11/06 05:24:53;;;;;;;38.95;14.73;;;;;;;;;;6203284;23;20191;-90
2022/11/06 05:27:59;;;;;;;29.10;13.13;;;;;;;;;;6205521;23;20207;-92
2022/11/06 05:31:04;;;;;;;30.55;13.48;;;;;;;;;;6203592;23;20163;-90
2022/11/06 05:34:09;;;;;;;27.05;13.27;;;;;;;;;;6204071;23;20511;-92
2022/11/06 05:37:14;;;;;;;27.42;13.15;;;;;;;;;;6204300;23;20171;-92
2022/11/06 05:40:19;;;;;;;26.95;13.15;;;;;;;;;;6204630;23;20218;-89
2022/11/06 05:43:26;;;;;;;25.20;12.25;;;;;;;;;;6208883;23;20175;-92
2022/11/06 05:46:32;;;;;;;29.00;13.38;;;;;;;;;;6203583;23;20187;-87
2022/11/06 05:49:37;;;;;;;28.98;13.07;;;;;;;;;;6205021;23;20238;-91
2022/11/06 05:52:42;;;;;;;32.35;13.15;;;;;;;;;;6199623;23;20176;-90
2022/11/06 05:55:47;;;;;;;31.98;14.05;;;;;;;;;;6207936;23;20179;-90
2022/11/06 05:58:53;;;;;;;27.52;12.30;;;;;;;;;;6168022;23;20216;-91
2022/11/06 06:01:59;;;;;;;25.10;11.65;;;;;;;;;;6124573;23;20192;-90
2022/11/06 06:05:05;;;;;;;28.77;13.13;;;;;;;;;;5973476;24;20180;-91
2022/11/06 06:08:10;;;;;;;25.40;12.23;;;;;;;;;;5798518;24;20238;-92
2022/11/06 06:14:21;;;;;;;32.08;12.60;;;;;;;;;;5267925;26;20206;-90
2022/11/06 06:17:26;;;;;;;24.60;12.10;;;;;;;;;;5293734;26;20216;-90
2022/11/06 06:23:50;;;;;;;26.52;12.70;;;;;;;;;;5280619;27;20188;-91
2022/11/06 06:26:56;;;;;;;32.88;13.25;;;;;;;;;;5279561;27;20320;-91
2022/11/06 06:30:02;;;;;;;26.70;12.40;;;;;;;;;;5281151;27;20177;-89
2022/11/06 06:33:07;;;;;;;28.05;13.10;;;;;;;;;;5267367;27;20578;-90
2022/11/06 06:36:13;;;;;;;26.27;13.32;;;;;;;;;;5282066;27;20213;-90
2022/11/06 06:39:19;;;;;;;26.17;12.52;;;;;;;;;;5269020;27;20221;-92
2022/11/06 06:42:24;;;;;;;25.25;12.52;;;;;;;;;;5268018;27;20197;-90
2022/11/06 06:45:31;;;;;;;27.13;12.40;;;;;;;;;;5269144;27;20242;-93
2022/11/06 06:48:37;;;;;;;25.50;12.35;;;;;;;;;;5269567;27;20547;-88
2022/11/06 06:51:42;;;;;;;25.23;12.77;;;;;;;;;;5281898;27;20195;-90
2022/11/06 06:54:47;;;;;;;25.58;12.88;;;;;;;;;;5281982;27;20205;-90
2022/11/06 06:57:57;;;;;;;27.52;12.70;;;;;;;;;;5269976;27;20200;-90
2022/11/06 07:01:04;;;;;;;29.23;13.38;;;;;;;;;;5271008;27;20252;-90
2022/11/06 07:04:11;;;;;;;30.00;13.27;;;;;;;;;;5271292;27;20196;-90
2022/11/06 07:07:17;;;;;;;24.52;11.88;;;;;;;;;;5271751;27;20193;-89
2022/11/06 07:10:22;;;;;;;26.83;13.18;;;;;;;;;;5272383;27;20278;-90
2022/11/06 12:45:09;;;;;;;8.87;5.30;;;;;;;;;;6107200;22;2053888;-90
2022/11/06 12:48:22;;;;;;;8.63;4.57;;;;;;;;;;6103948;23;20294;-91
2022/11/06 12:51:32;;;;;;;6.47;3.50;;;;;;;;;;6098880;23;20162;-90
2022/11/06 12:54:49;;;;;;;7.80;4.13;;;;;;;;;;6100397;23;20185;-92
